createdAt,value
2019-04-09T00:04:45.735Z,6.20
2019-04-09T00:09:51.764Z,6.20
2019-04-09T00:14:57.109Z,6.20
2019-04-09T00:20:02.256Z,6.20
2019-04-09T00:25:08.850Z,6.10
2019-04-09T00:30:13.951Z,6.10
2019-04-09T00:35:19.405Z,6.20
2019-04-09T00:40:24.407Z,6.10
2019-04-09T00:45:30.518Z,6.10
2019-04-09T00:50:36.551Z,6.10
2019-04-09T00:55:43.641Z,6.00
2019-04-09T01:01:03.626Z,6.00
2019-04-09T01:06:08.966Z,5.90
2019-04-09T01:11:15.090Z,5.80
2019-04-09T01:16:20.500Z,5.80
2019-04-09T01:21:27.974Z,5.70
2019-04-09T01:26:49.799Z,5.60
2019-04-09T01:32:17.259Z,5.40
2019-04-09T01:37:47.437Z,5.30
2019-04-09T01:43:00.134Z,5.30
2019-04-09T01:48:36.350Z,5.20
2019-04-09T01:54:04.014Z,5.20
2019-04-09T01:59:43.253Z,5.20
2019-04-09T02:05:02.774Z,5.10
2019-04-09T02:10:27.223Z,5.00
2019-04-09T02:15:51.945Z,5.00
2019-04-09T02:21:16.738Z,5.00
2019-04-09T02:26:53.238Z,4.90
2019-04-09T02:32:09.562Z,4.90
2019-04-09T02:37:32.383Z,4.80
2019-04-09T02:42:55.594Z,4.70
2019-04-09T02:48:27.520Z,4.70
2019-04-09T02:53:45.117Z,4.70
2019-04-09T02:59:01.177Z,4.70
2019-04-09T03:04:24.812Z,4.60
2019-04-09T03:09:47.232Z,4.70
2019-04-09T03:15:05.131Z,4.60
2019-04-09T03:20:39.464Z,4.50
2019-04-09T03:26:09.535Z,4.50
2019-04-09T03:31:32.700Z,4.60
2019-04-09T03:37:01.853Z,4.50
2019-04-09T03:42:28.463Z,4.30
2019-04-09T03:47:52.739Z,4.30
2019-04-09T03:53:05.874Z,4.30
2019-04-09T03:58:33.143Z,4.40
2019-04-09T04:03:43.849Z,4.30
2019-04-09T04:09:10.134Z,4.20
2019-04-09T04:14:34.480Z,4.10
2019-04-09T04:20:08.640Z,4.20
2019-04-09T04:25:34.857Z,4.20
2019-04-09T04:31:03.252Z,4.20
2019-04-09T04:36:27.411Z,4.10
2019-04-09T04:41:49.847Z,4.10
2019-04-09T04:47:19.708Z,4.10
2019-04-09T04:52:35.530Z,4.10
2019-04-09T04:57:56.253Z,4.00
2019-04-09T05:03:24.399Z,4.10
2019-04-09T05:08:43.884Z,4.10
2019-04-09T05:14:14.376Z,4.10
2019-04-09T05:19:41.455Z,4.20
2019-04-09T05:25:17.640Z,4.10
2019-04-09T05:30:49.000Z,4.20
2019-04-09T05:36:07.629Z,4.10
2019-04-09T05:41:29.817Z,4.20
2019-04-09T05:46:52.170Z,4.30
2019-04-09T05:52:25.106Z,4.40
2019-04-09T05:57:48.652Z,4.40
2019-04-09T06:03:11.941Z,4.50
2019-04-09T06:08:38.705Z,4.60
2019-04-09T06:13:44.886Z,4.80
2019-04-09T06:18:51.814Z,4.90
2019-04-09T06:23:57.059Z,5.00
2019-04-09T06:29:13.386Z,5.20
2019-04-09T06:34:38.490Z,5.30
2019-04-09T06:39:56.834Z,5.40
2019-04-09T06:45:07.865Z,5.50
2019-04-09T06:50:22.929Z,5.70
2019-04-09T06:55:43.241Z,5.80
2019-04-09T07:00:56.245Z,6.00
2019-04-09T07:06:18.736Z,6.20
2019-04-09T07:11:36.999Z,6.40
2019-04-09T07:17:00.378Z,6.60
2019-04-09T07:22:23.437Z,6.70
2019-04-09T07:27:46.329Z,6.80
2019-04-09T07:33:25.379Z,6.80
2019-04-09T07:38:51.943Z,7.10
2019-04-09T07:44:12.156Z,7.30
2019-04-09T07:49:32.775Z,7.60
2019-04-09T07:54:54.134Z,7.80
2019-04-09T08:00:23.291Z,7.90
2019-04-09T08:05:51.981Z,8.10
2019-04-09T08:11:24.423Z,8.30
2019-04-09T08:16:48.617Z,8.40
2019-04-09T08:21:59.716Z,8.70
2019-04-09T08:27:27.746Z,8.90
2019-04-09T08:32:42.979Z,9.00
2019-04-09T08:38:18.046Z,9.00
2019-04-09T08:43:36.920Z,9.10
2019-04-09T08:48:53.813Z,9.40
2019-04-09T08:54:26.153Z,9.60
2019-04-09T08:59:53.218Z,9.70
2019-04-09T09:05:18.245Z,9.70
2019-04-09T09:10:40.408Z,9.80
2019-04-09T09:16:01.510Z,9.70
2019-04-09T09:21:32.299Z,10.10
2019-04-09T09:26:55.949Z,9.80
2019-04-09T09:32:11.273Z,10.10
2019-04-09T09:37:35.246Z,10.50
2019-04-09T09:42:51.396Z,10.50
2019-04-09T09:48:11.713Z,10.60
2019-04-09T09:53:38.673Z,10.80
2019-04-09T09:59:10.547Z,11.20
2019-04-09T10:04:38.935Z,11.20
2019-04-09T10:10:09.274Z,11.50
2019-04-09T10:15:21.903Z,11.40
2019-04-09T10:20:48.427Z,11.40
2019-04-09T10:26:15.302Z,11.20
2019-04-09T10:31:47.714Z,11.00
2019-04-09T10:37:19.645Z,11.20
2019-04-09T10:42:39.650Z,11.60
2019-04-09T10:48:05.878Z,11.70
2019-04-09T10:53:34.499Z,11.70
2019-04-09T10:59:05.282Z,11.80
2019-04-09T11:04:29.473Z,12.00
2019-04-09T11:09:53.627Z,12.40
2019-04-09T11:15:18.684Z,12.40
2019-04-09T11:20:48.965Z,12.20
2019-04-09T11:26:15.193Z,12.90
2019-04-09T11:32:02.161Z,12.90
2019-04-09T11:37:09.713Z,13.00
2019-04-09T11:42:36.189Z,13.00
2019-04-09T11:48:12.273Z,12.70
2019-04-09T11:53:26.762Z,12.70
2019-04-09T11:58:44.689Z,12.50
2019-04-09T12:04:11.856Z,12.50
2019-04-09T12:09:37.376Z,12.70
2019-04-09T12:15:04.808Z,12.90
2019-04-09T12:20:28.425Z,13.10
2019-04-09T12:25:50.531Z,12.70
2019-04-09T12:31:30.303Z,12.30
2019-04-09T12:36:58.289Z,12.10
2019-04-09T12:42:12.282Z,12.70
2019-04-09T12:47:46.226Z,12.90
2019-04-09T12:53:09.922Z,13.00
2019-04-09T12:58:32.538Z,13.20
2019-04-09T13:04:12.112Z,12.90
2019-04-09T13:09:36.173Z,14.50
2019-04-09T13:14:59.712Z,15.50
2019-04-09T13:20:22.797Z,16.80
2019-04-09T13:25:41.328Z,17.70
2019-04-09T13:31:11.430Z,18.50
2019-04-09T13:36:46.337Z,18.10
2019-04-09T13:42:00.275Z,18.20
2019-04-09T13:47:15.245Z,18.30
2019-04-09T13:52:38.235Z,17.50
2019-04-09T13:57:43.533Z,18.10
2019-04-09T14:03:26.169Z,17.30
2019-04-09T14:08:23.383Z,16.10
2019-04-09T14:13:28.472Z,17.80
2019-04-09T14:18:34.549Z,18.10
2019-04-09T14:23:39.942Z,15.80
2019-04-09T14:28:46.025Z,15.70
2019-04-09T14:33:51.874Z,16.10
2019-04-09T14:38:56.925Z,16.60
2019-04-09T14:44:01.981Z,16.20
2019-04-09T14:49:07.790Z,15.60
2019-04-09T14:54:12.851Z,16.80
2019-04-09T14:59:17.930Z,16.90
2019-04-09T15:04:23.681Z,17.10
2019-04-09T15:09:29.400Z,17.50
2019-04-09T15:14:36.584Z,16.60
2019-04-09T15:19:41.697Z,17.00
2019-04-09T15:24:46.904Z,19.20
2019-04-09T15:29:52.192Z,19.80
2019-04-09T15:35:00.068Z,18.70
2019-04-09T15:40:06.729Z,16.50
2019-04-09T15:45:12.361Z,15.60
2019-04-09T15:50:20.115Z,15.20
2019-04-09T15:55:25.801Z,14.80
2019-04-09T16:00:30.772Z,15.60
2019-04-09T16:05:35.815Z,15.70
2019-04-09T16:10:41.414Z,14.80
2019-04-09T16:15:47.679Z,14.40
2019-04-09T16:20:52.917Z,13.30
2019-04-09T16:25:57.935Z,13.10
2019-04-09T16:31:02.982Z,13.10
2019-04-09T16:36:07.964Z,12.60
2019-04-09T16:41:12.968Z,12.60
2019-04-09T16:46:18.084Z,12.60
2019-04-09T16:51:23.090Z,12.70
2019-04-09T16:56:28.106Z,13.20
2019-04-09T17:01:33.880Z,12.40
2019-04-09T17:06:39.442Z,12.20
2019-04-09T17:11:44.693Z,11.90
2019-04-09T17:16:50.867Z,11.30
2019-04-09T17:21:56.164Z,10.80
2019-04-09T17:27:02.367Z,10.30
2019-04-09T17:32:07.713Z,10.00
2019-04-09T17:37:13.421Z,9.80
2019-04-09T17:42:20.296Z,9.80
2019-04-09T17:47:25.890Z,10.10
2019-04-09T17:52:32.531Z,10.40
2019-04-09T17:57:38.026Z,10.50
2019-04-09T18:02:43.062Z,10.20
2019-04-09T18:07:50.902Z,9.60
2019-04-09T18:12:57.012Z,9.20
2019-04-09T18:18:03.958Z,8.90
2019-04-09T18:23:09.791Z,8.70
2019-04-09T18:28:16.266Z,8.50
2019-04-09T18:33:25.037Z,8.40
2019-04-09T18:38:34.924Z,8.20
2019-04-09T18:43:41.266Z,8.10
2019-04-09T18:48:50.759Z,8.00
2019-04-09T18:54:00.035Z,7.80
2019-04-09T18:59:09.405Z,7.60
2019-04-09T19:04:17.621Z,7.40
2019-04-09T19:09:23.303Z,7.10
2019-04-09T19:14:28.459Z,7.00
2019-04-09T19:19:34.238Z,6.90
2019-04-09T19:24:39.677Z,7.00
2019-04-09T19:29:44.891Z,6.80
2019-04-09T19:34:49.959Z,6.70
2019-04-09T19:40:13.992Z,6.60
2019-04-09T19:45:20.927Z,6.60
2019-04-09T19:50:25.966Z,6.50
2019-04-09T19:55:30.995Z,6.40
2019-04-09T20:00:36.102Z,6.30
2019-04-09T20:05:44.085Z,6.30
2019-04-09T20:10:47.814Z,6.20
2019-04-09T20:15:53.104Z,6.10
2019-04-09T20:20:59.040Z,6.00
2019-04-09T20:26:06.593Z,5.90
2019-04-09T20:31:12.362Z,5.80
2019-04-09T20:36:18.130Z,5.80
2019-04-09T20:41:23.734Z,5.70
2019-04-09T20:46:31.546Z,5.60
2019-04-09T20:51:37.081Z,5.50
2019-04-09T20:56:42.820Z,5.40
2019-04-09T21:02:05.823Z,5.20
2019-04-09T21:07:11.569Z,5.20
2019-04-09T21:12:17.218Z,5.00
2019-04-09T21:17:22.931Z,4.90
2019-04-09T21:22:28.470Z,4.80
2019-04-09T21:27:33.872Z,4.70
2019-04-09T21:32:40.266Z,4.70
2019-04-09T21:37:46.337Z,4.60
2019-04-09T21:42:51.794Z,4.50
2019-04-09T21:47:57.111Z,4.40
2019-04-09T21:53:03.468Z,4.30
2019-04-09T21:58:08.804Z,4.20
2019-04-09T22:03:15.531Z,4.10
2019-04-09T22:08:21.534Z,4.00
2019-04-09T22:13:27.443Z,3.90
2019-04-09T22:18:32.998Z,3.80
2019-04-09T22:23:44.991Z,3.70
2019-04-09T22:28:44.947Z,3.70
2019-04-09T22:33:50.960Z,3.60
2019-04-09T22:38:56.370Z,3.50
2019-04-09T22:44:05.134Z,3.50
2019-04-09T22:49:08.831Z,3.30
2019-04-09T22:54:14.206Z,3.30
2019-04-09T22:59:19.617Z,3.20
2019-04-09T23:04:39.014Z,3.10
2019-04-09T23:10:01.654Z,3.00
2019-04-09T23:15:12.784Z,2.90
2019-04-09T23:20:18.689Z,2.90
2019-04-09T23:25:24.451Z,2.70
2019-04-09T23:30:30.771Z,2.60
2019-04-09T23:35:35.807Z,2.40
2019-04-09T23:40:41.675Z,2.50
2019-04-09T23:45:47.105Z,2.50
2019-04-09T23:50:52.197Z,2.30
2019-04-09T23:55:57.243Z,2.20
